sensor_id;sensor_type;location;lat;lon;timestamp;pressure;altitude;pressure_sealevel;temperature;humidity
75759;BME280;64371;47.566;19.086;2023-10-09T00:02:16;101432.22;;;8.72;56.69
75759;BME280;64371;47.566;19.086;2023-10-09T00:05:18;101424.38;;;8.94;56.91
75759;BME280;64371;47.566;19.086;2023-10-09T00:08:34;101415.88;;;9.03;56.37
75759;BME280;64371;47.566;19.086;2023-10-09T00:11:39;101409.34;;;9.27;56.24
75759;BME280;64371;47.566;19.086;2023-10-09T00:14:46;101416.56;;;9.15;55.89
75759;BME280;64371;47.566;19.086;2023-10-09T00:17:50;101417.66;;;9.19;55.91
75759;BME280;64371;47.566;19.086;2023-10-09T00:20:54;101418.00;;;9.28;56.02
75759;BME280;64371;47.566;19.086;2023-10-09T00:23:57;101422.59;;;9.38;55.53
75759;BME280;64371;47.566;19.086;2023-10-09T00:27:01;101409.50;;;9.43;56.26
75759;BME280;64371;47.566;19.086;2023-10-09T00:30:17;101406.81;;;9.38;54.62
75759;BME280;64371;47.566;19.086;2023-10-09T00:33:20;101412.75;;;9.50;53.82
75759;BME280;64371;47.566;19.086;2023-10-09T00:36:25;101405.91;;;9.49;55.17
75759;BME280;64371;47.566;19.086;2023-10-09T00:39:30;101402.53;;;9.53;55.48
75759;BME280;64371;47.566;19.086;2023-10-09T00:42:45;101393.34;;;9.56;54.57
75759;BME280;64371;47.566;19.086;2023-10-09T00:45:49;101401.50;;;9.54;54.50
75759;BME280;64371;47.566;19.086;2023-10-09T00:48:57;101404.00;;;9.66;55.04
75759;BME280;64371;47.566;19.086;2023-10-09T00:52:03;101413.16;;;9.85;53.56
75759;BME280;64371;47.566;19.086;2023-10-09T00:55:07;101410.22;;;10.08;52.80
75759;BME280;64371;47.566;19.086;2023-10-09T00:58:16;101404.09;;;9.97;52.96
75759;BME280;64371;47.566;19.086;2023-10-09T01:01:28;101393.88;;;10.06;52.40
75759;BME280;64371;47.566;19.086;2023-10-09T01:04:36;101394.53;;;10.18;51.64
75759;BME280;64371;47.566;19.086;2023-10-09T01:07:40;101391.28;;;10.11;51.83
75759;BME280;64371;47.566;19.086;2023-10-09T01:10:46;101399.00;;;10.18;51.90
75759;BME280;64371;47.566;19.086;2023-10-09T01:13:55;101398.28;;;10.00;52.95
75759;BME280;64371;47.566;19.086;2023-10-09T01:17:14;101392.44;;;9.93;53.22
75759;BME280;64371;47.566;19.086;2023-10-09T01:20:32;101400.84;;;9.90;53.75
75759;BME280;64371;47.566;19.086;2023-10-09T01:23:45;101403.50;;;9.95;52.70
75759;BME280;64371;47.566;19.086;2023-10-09T01:27:12;101403.38;;;10.07;52.33
75759;BME280;64371;47.566;19.086;2023-10-09T01:30:20;101395.47;;;10.07;51.33
75759;BME280;64371;47.566;19.086;2023-10-09T01:33:23;101390.34;;;10.22;50.94
75759;BME280;64371;47.566;19.086;2023-10-09T01:36:30;101394.41;;;10.35;50.96
75759;BME280;64371;47.566;19.086;2023-10-09T01:39:35;101385.69;;;10.29;51.61
75759;BME280;64371;47.566;19.086;2023-10-09T01:42:42;101387.13;;;10.15;51.09
75759;BME280;64371;47.566;19.086;2023-10-09T01:45:48;101404.38;;;10.28;51.47
75759;BME280;64371;47.566;19.086;2023-10-09T01:48:51;101397.94;;;10.14;50.77
75759;BME280;64371;47.566;19.086;2023-10-09T01:51:56;101409.31;;;9.92;51.30
75759;BME280;64371;47.566;19.086;2023-10-09T01:55:03;101415.16;;;9.99;51.11
75759;BME280;64371;47.566;19.086;2023-10-09T01:58:28;101408.44;;;9.87;51.86
75759;BME280;64371;47.566;19.086;2023-10-09T02:01:35;101407.69;;;9.91;51.96
75759;BME280;64371;47.566;19.086;2023-10-09T02:04:43;101421.63;;;9.87;52.95
75759;BME280;64371;47.566;19.086;2023-10-09T02:07:47;101416.19;;;9.98;52.86
75759;BME280;64371;47.566;19.086;2023-10-09T02:10:55;101415.22;;;10.05;52.54
75759;BME280;64371;47.566;19.086;2023-10-09T02:13:58;101408.47;;;10.14;52.56
75759;BME280;64371;47.566;19.086;2023-10-09T02:17:03;101404.69;;;10.05;53.17
75759;BME280;64371;47.566;19.086;2023-10-09T02:20:10;101404.25;;;10.13;52.56
75759;BME280;64371;47.566;19.086;2023-10-09T02:23:20;101415.41;;;9.98;52.50
75759;BME280;64371;47.566;19.086;2023-10-09T02:26:27;101409.41;;;9.76;53.59
75759;BME280;64371;47.566;19.086;2023-10-09T02:29:42;101390.41;;;10.00;53.68
75759;BME280;64371;47.566;19.086;2023-10-09T02:32:46;101376.88;;;9.92;54.52
75759;BME280;64371;47.566;19.086;2023-10-09T02:35:56;101388.22;;;9.92;54.65
75759;BME280;64371;47.566;19.086;2023-10-09T02:39:01;101371.03;;;9.85;55.76
75759;BME280;64371;47.566;19.086;2023-10-09T02:42:08;101365.28;;;9.88;56.53
75759;BME280;64371;47.566;19.086;2023-10-09T02:45:25;101364.69;;;9.81;56.25
75759;BME280;64371;47.566;19.086;2023-10-09T02:48:34;101355.28;;;9.90;56.68
75759;BME280;64371;47.566;19.086;2023-10-09T02:51:38;101361.09;;;9.92;55.46
75759;BME280;64371;47.566;19.086;2023-10-09T02:54:56;101360.72;;;9.83;55.02
75759;BME280;64371;47.566;19.086;2023-10-09T02:58:02;101355.72;;;9.82;53.77
75759;BME280;64371;47.566;19.086;2023-10-09T03:01:11;101351.69;;;10.01;52.84
75759;BME280;64371;47.566;19.086;2023-10-09T03:04:15;101346.94;;;10.03;53.79
75759;BME280;64371;47.566;19.086;2023-10-09T03:07:18;101329.47;;;10.19;53.06
75759;BME280;64371;47.566;19.086;2023-10-09T03:10:22;101333.41;;;10.16;52.97
75759;BME280;64371;47.566;19.086;2023-10-09T03:13:25;101358.59;;;10.07;53.45
75759;BME280;64371;47.566;19.086;2023-10-09T03:16:27;101362.00;;;10.02;53.08
75759;BME280;64371;47.566;19.086;2023-10-09T03:19:32;101347.34;;;10.12;54.16
75759;BME280;64371;47.566;19.086;2023-10-09T03:22:41;101351.69;;;10.01;54.58
75759;BME280;64371;47.566;19.086;2023-10-09T03:25:44;101344.22;;;10.20;54.49
75759;BME280;64371;47.566;19.086;2023-10-09T03:28:49;101349.50;;;10.20;54.87
75759;BME280;64371;47.566;19.086;2023-10-09T03:31:51;101342.44;;;10.25;54.86
75759;BME280;64371;47.566;19.086;2023-10-09T03:34:53;101352.78;;;10.37;55.53
75759;BME280;64371;47.566;19.086;2023-10-09T03:37:57;101371.94;;;10.27;55.50
75759;BME280;64371;47.566;19.086;2023-10-09T03:41:06;101360.97;;;10.35;55.95
75759;BME280;64371;47.566;19.086;2023-10-09T03:44:08;101353.41;;;10.49;55.25
75759;BME280;64371;47.566;19.086;2023-10-09T03:47:12;101332.91;;;10.56;54.70
75759;BME280;64371;47.566;19.086;2023-10-09T03:50:18;101337.53;;;10.39;54.69
75759;BME280;64371;47.566;19.086;2023-10-09T03:53:38;101342.81;;;10.39;54.16
75759;BME280;64371;47.566;19.086;2023-10-09T03:56:44;101339.97;;;10.50;54.87
75759;BME280;64371;47.566;19.086;2023-10-09T03:59:47;101331.31;;;10.55;54.69
75759;BME280;64371;47.566;19.086;2023-10-09T04:02:49;101324.19;;;10.55;54.85
75759;BME280;64371;47.566;19.086;2023-10-09T04:05:53;101325.00;;;10.56;53.71
75759;BME280;64371;47.566;19.086;2023-10-09T04:08:56;101335.81;;;10.59;53.06
75759;BME280;64371;47.566;19.086;2023-10-09T04:12:00;101334.44;;;10.52;53.09
75759;BME280;64371;47.566;19.086;2023-10-09T04:15:12;101335.00;;;10.59;52.75
75759;BME280;64371;47.566;19.086;2023-10-09T04:18:17;101325.78;;;10.56;52.73
75759;BME280;64371;47.566;19.086;2023-10-09T04:21:20;101330.81;;;10.58;51.89
75759;BME280;64371;47.566;19.086;2023-10-09T04:24:36;101329.22;;;10.57;52.17
75759;BME280;64371;47.566;19.086;2023-10-09T04:27:46;101316.50;;;10.49;52.40
75759;BME280;64371;47.566;19.086;2023-10-09T04:30:49;101310.22;;;10.55;51.91
75759;BME280;64371;47.566;19.086;2023-10-09T04:33:58;101322.09;;;10.57;50.24
75759;BME280;64371;47.566;19.086;2023-10-09T04:37:19;101314.47;;;10.56;50.04
75759;BME280;64371;47.566;19.086;2023-10-09T04:40:39;101306.34;;;10.68;50.57
75759;BME280;64371;47.566;19.086;2023-10-09T04:43:57;101300.25;;;10.67;49.55
75759;BME280;64371;47.566;19.086;2023-10-09T04:47:19;101301.03;;;10.62;49.93
75759;BME280;64371;47.566;19.086;2023-10-09T04:50:25;101308.19;;;10.67;49.04
75759;BME280;64371;47.566;19.086;2023-10-09T04:53:33;101298.91;;;10.59;49.02
75759;BME280;64371;47.566;19.086;2023-10-09T04:56:46;101300.53;;;10.65;49.90
75759;BME280;64371;47.566;19.086;2023-10-09T04:59:55;101293.19;;;10.73;48.31
75759;BME280;64371;47.566;19.086;2023-10-09T05:03:02;101300.00;;;10.68;48.74
75759;BME280;64371;47.566;19.086;2023-10-09T05:06:15;101281.31;;;10.70;48.84
75759;BME280;64371;47.566;19.086;2023-10-09T05:09:35;101282.91;;;10.76;49.47
75759;BME280;64371;47.566;19.086;2023-10-09T05:12:57;101289.75;;;10.72;49.12
75759;BME280;64371;47.566;19.086;2023-10-09T05:15:59;101297.13;;;10.70;49.43
75759;BME280;64371;47.566;19.086;2023-10-09T05:19:04;101286.91;;;10.84;49.51
75759;BME280;64371;47.566;19.086;2023-10-09T05:22:27;101278.38;;;10.66;48.80
75759;BME280;64371;47.566;19.086;2023-10-09T05:25:38;101269.44;;;10.73;48.85
75759;BME280;64371;47.566;19.086;2023-10-09T05:28:56;101275.22;;;10.70;47.75
75759;BME280;64371;47.566;19.086;2023-10-09T05:32:03;101288.94;;;10.72;48.80
75759;BME280;64371;47.566;19.086;2023-10-09T05:35:30;101295.06;;;10.82;47.67
75759;BME280;64371;47.566;19.086;2023-10-09T05:38:41;101290.78;;;10.71;48.01
75759;BME280;64371;47.566;19.086;2023-10-09T05:41:48;101300.84;;;10.79;47.79
75759;BME280;64371;47.566;19.086;2023-10-09T05:44:53;101316.19;;;10.87;47.89
75759;BME280;64371;47.566;19.086;2023-10-09T05:48:19;101311.72;;;10.93;48.08
75759;BME280;64371;47.566;19.086;2023-10-09T05:51:25;101291.16;;;10.90;47.62
75759;BME280;64371;47.566;19.086;2023-10-09T05:54:46;101243.19;;;11.08;47.69
75759;BME280;64371;47.566;19.086;2023-10-09T05:58:08;101291.19;;;11.05;47.16
75759;BME280;64371;47.566;19.086;2023-10-09T06:01:30;101282.72;;;10.98;47.21
75759;BME280;64371;47.566;19.086;2023-10-09T06:04:53;101281.19;;;11.07;46.68
75759;BME280;64371;47.566;19.086;2023-10-09T06:08:00;101265.56;;;10.95;46.11
75759;BME280;64371;47.566;19.086;2023-10-09T06:11:11;101267.94;;;10.92;46.41
75759;BME280;64371;47.566;19.086;2023-10-09T06:14:33;101258.75;;;11.04;45.78
75759;BME280;64371;47.566;19.086;2023-10-09T06:17:40;101243.69;;;11.05;45.33
75759;BME280;64371;47.566;19.086;2023-10-09T06:20:54;101239.50;;;11.04;45.93
75759;BME280;64371;47.566;19.086;2023-10-09T06:24:12;101228.91;;;10.99;45.32
75759;BME280;64371;47.566;19.086;2023-10-09T06:27:18;101241.06;;;11.10;45.30
75759;BME280;64371;47.566;19.086;2023-10-09T06:30:34;101251.34;;;11.01;45.21
75759;BME280;64371;47.566;19.086;2023-10-09T06:33:37;101252.44;;;11.10;45.09
75759;BME280;64371;47.566;19.086;2023-10-09T06:37:01;101256.69;;;11.16;45.54
75759;BME280;64371;47.566;19.086;2023-10-09T06:40:37;101255.34;;;11.14;44.77
75759;BME280;64371;47.566;19.086;2023-10-09T06:43:58;101249.25;;;11.08;44.32
75759;BME280;64371;47.566;19.086;2023-10-09T06:47:10;101242.16;;;11.14;44.81
75759;BME280;64371;47.566;19.086;2023-10-09T06:50:15;101246.13;;;11.31;44.48
75759;BME280;64371;47.566;19.086;2023-10-09T06:53:23;101240.31;;;11.24;44.26
75759;BME280;64371;47.566;19.086;2023-10-09T06:56:52;101236.13;;;11.44;43.37
75759;BME280;64371;47.566;19.086;2023-10-09T06:59:54;101232.72;;;11.38;42.57
75759;BME280;64371;47.566;19.086;2023-10-09T07:03:15;101224.00;;;11.38;42.69
75759;BME280;64371;47.566;19.086;2023-10-09T07:06:22;101231.38;;;11.51;42.39
75759;BME280;64371;47.566;19.086;2023-10-09T07:09:49;101220.81;;;11.51;42.60
75759;BME280;64371;47.566;19.086;2023-10-09T07:13:10;101228.50;;;11.52;43.37
75759;BME280;64371;47.566;19.086;2023-10-09T07:16:14;101215.28;;;11.57;42.55
75759;BME280;64371;47.566;19.086;2023-10-09T07:19:40;101215.81;;;11.64;42.16
75759;BME280;64371;47.566;19.086;2023-10-09T07:22:43;101207.38;;;11.92;41.91
75759;BME280;64371;47.566;19.086;2023-10-09T07:26:11;101175.66;;;11.87;41.88
75759;BME280;64371;47.566;19.086;2023-10-09T07:29:20;101146.63;;;11.57;41.44
75759;BME280;64371;47.566;19.086;2023-10-09T07:32:25;101149.78;;;11.84;41.48
75759;BME280;64371;47.566;19.086;2023-10-09T07:35:34;101125.66;;;12.11;41.24
75759;BME280;64371;47.566;19.086;2023-10-09T07:38:45;101130.78;;;11.72;41.39
75759;BME280;64371;47.566;19.086;2023-10-09T07:41:48;101137.84;;;12.02;40.18
75759;BME280;64371;47.566;19.086;2023-10-09T07:45:17;101125.13;;;12.19;40.23
75759;BME280;64371;47.566;19.086;2023-10-09T07:48:23;101134.53;;;12.40;40.65
75759;BME280;64371;47.566;19.086;2023-10-09T07:51:28;101136.31;;;12.55;40.00
75759;BME280;64371;47.566;19.086;2023-10-09T07:54:33;101126.25;;;11.88;40.64
75759;BME280;64371;47.566;19.086;2023-10-09T07:57:38;101122.03;;;11.87;40.98
75759;BME280;64371;47.566;19.086;2023-10-09T08:00:44;101139.16;;;12.05;41.32
75759;BME280;64371;47.566;19.086;2023-10-09T08:04:05;101141.25;;;12.18;40.55
75759;BME280;64371;47.566;19.086;2023-10-09T08:07:22;101133.06;;;12.09;41.27
75759;BME280;64371;47.566;19.086;2023-10-09T08:10:48;101116.81;;;12.41;40.93
75759;BME280;64371;47.566;19.086;2023-10-09T08:14:12;101122.41;;;12.39;40.37
75759;BME280;64371;47.566;19.086;2023-10-09T08:17:35;101117.81;;;12.55;39.74
75759;BME280;64371;47.566;19.086;2023-10-09T08:20:40;101105.66;;;12.54;40.17
75759;BME280;64371;47.566;19.086;2023-10-09T08:24:02;101102.72;;;12.55;40.58
75759;BME280;64371;47.566;19.086;2023-10-09T08:27:08;101109.16;;;12.39;40.32
75759;BME280;64371;47.566;19.086;2023-10-09T08:30:34;101110.19;;;12.43;40.33
75759;BME280;64371;47.566;19.086;2023-10-09T08:33:52;101094.47;;;12.18;40.71
75759;BME280;64371;47.566;19.086;2023-10-09T08:37:04;101097.31;;;12.27;41.05
75759;BME280;64371;47.566;19.086;2023-10-09T08:40:08;101088.84;;;12.30;41.29
75759;BME280;64371;47.566;19.086;2023-10-09T08:43:18;101083.31;;;12.26;40.40
75759;BME280;64371;47.566;19.086;2023-10-09T08:46:23;101082.75;;;12.34;41.41
75759;BME280;64371;47.566;19.086;2023-10-09T08:49:30;101088.47;;;12.51;40.46
75759;BME280;64371;47.566;19.086;2023-10-09T08:52:36;101093.53;;;12.43;40.94
75759;BME280;64371;47.566;19.086;2023-10-09T08:55:40;101077.09;;;12.51;40.84
75759;BME280;64371;47.566;19.086;2023-10-09T08:58:44;101070.28;;;12.45;41.77
75759;BME280;64371;47.566;19.086;2023-10-09T09:01:48;101056.84;;;12.75;40.67
75759;BME280;64371;47.566;19.086;2023-10-09T09:04:52;101045.59;;;12.93;40.76
75759;BME280;64371;47.566;19.086;2023-10-09T09:07:55;101043.09;;;12.73;40.68
75759;BME280;64371;47.566;19.086;2023-10-09T09:11:03;101049.75;;;12.71;40.35
75759;BME280;64371;47.566;19.086;2023-10-09T09:14:38;101063.25;;;12.69;40.73
75759;BME280;64371;47.566;19.086;2023-10-09T09:17:41;101043.00;;;12.88;40.54
75759;BME280;64371;47.566;19.086;2023-10-09T09:20:44;101043.59;;;12.80;40.40
75759;BME280;64371;47.566;19.086;2023-10-09T09:23:55;101050.84;;;12.98;40.51
75759;BME280;64371;47.566;19.086;2023-10-09T09:27:03;101039.09;;;13.14;40.37
75759;BME280;64371;47.566;19.086;2023-10-09T09:30:27;101023.47;;;13.65;39.21
75759;BME280;64371;47.566;19.086;2023-10-09T09:33:36;101018.66;;;14.33;37.67
75759;BME280;64371;47.566;19.086;2023-10-09T09:36:55;101027.25;;;14.44;37.38
75759;BME280;64371;47.566;19.086;2023-10-09T09:40:01;101033.22;;;14.36;37.12
75759;BME280;64371;47.566;19.086;2023-10-09T09:43:13;101022.38;;;14.70;36.43
75759;BME280;64371;47.566;19.086;2023-10-09T09:46:24;101016.03;;;14.84;35.79
75759;BME280;64371;47.566;19.086;2023-10-09T09:49:41;101015.44;;;14.87;35.42
75759;BME280;64371;47.566;19.086;2023-10-09T09:52:45;101017.03;;;14.88;35.10
75759;BME280;64371;47.566;19.086;2023-10-09T09:55:51;101024.56;;;14.81;35.54
75759;BME280;64371;47.566;19.086;2023-10-09T09:59:02;101026.66;;;14.84;35.96
75759;BME280;64371;47.566;19.086;2023-10-09T10:02:10;101007.88;;;14.62;36.07
75759;BME280;64371;47.566;19.086;2023-10-09T10:05:19;101016.75;;;14.71;36.67
75759;BME280;64371;47.566;19.086;2023-10-09T10:08:22;101014.66;;;14.87;35.82
75759;BME280;64371;47.566;19.086;2023-10-09T10:11:47;100957.06;;;14.55;36.11
75759;BME280;64371;47.566;19.086;2023-10-09T10:14:56;100893.50;;;14.13;38.02
75759;BME280;64371;47.566;19.086;2023-10-09T10:18:09;100923.75;;;14.12;38.26
75759;BME280;64371;47.566;19.086;2023-10-09T10:21:23;100906.22;;;13.97;37.96
75759;BME280;64371;47.566;19.086;2023-10-09T10:24:51;100909.63;;;13.97;38.02
75759;BME280;64371;47.566;19.086;2023-10-09T10:28:19;100905.41;;;14.34;37.35
75759;BME280;64371;47.566;19.086;2023-10-09T10:31:56;100879.97;;;14.46;37.09
75759;BME280;64371;47.566;19.086;2023-10-09T10:35:01;100858.72;;;14.92;35.64
75759;BME280;64371;47.566;19.086;2023-10-09T10:38:31;100858.44;;;14.94;35.65
75759;BME280;64371;47.566;19.086;2023-10-09T10:41:38;100869.53;;;15.37;35.01
75759;BME280;64371;47.566;19.086;2023-10-09T10:44:53;100853.06;;;15.62;35.22
75759;BME280;64371;47.566;19.086;2023-10-09T10:47:56;100833.59;;;15.53;34.90
75759;BME280;64371;47.566;19.086;2023-10-09T10:51:01;100791.22;;;15.70;34.75
75759;BME280;64371;47.566;19.086;2023-10-09T10:54:04;100840.63;;;15.71;34.68
75759;BME280;64371;47.566;19.086;2023-10-09T10:57:25;100847.28;;;15.82;34.38
75759;BME280;64371;47.566;19.086;2023-10-09T11:00:31;100823.00;;;15.75;35.11
75759;BME280;64371;47.566;19.086;2023-10-09T11:03:52;100821.50;;;15.47;35.18
75759;BME280;64371;47.566;19.086;2023-10-09T11:07:01;100851.34;;;16.02;34.69
75759;BME280;64371;47.566;19.086;2023-10-09T11:10:27;100849.06;;;15.51;35.01
75759;BME280;64371;47.566;19.086;2023-10-09T11:13:31;100814.34;;;15.20;35.74
75759;BME280;64371;47.566;19.086;2023-10-09T11:16:36;100817.13;;;15.15;36.39
75759;BME280;64371;47.566;19.086;2023-10-09T11:19:46;100870.03;;;15.25;35.94
75759;BME280;64371;47.566;19.086;2023-10-09T11:22:50;100887.84;;;15.52;36.14
75759;BME280;64371;47.566;19.086;2023-10-09T11:26:13;100843.78;;;15.73;34.98
75759;BME280;64371;47.566;19.086;2023-10-09T11:29:29;100794.53;;;15.40;35.11
75759;BME280;64371;47.566;19.086;2023-10-09T11:33:04;100788.00;;;15.10;35.94
75759;BME280;64371;47.566;19.086;2023-10-09T11:36:07;100844.22;;;15.39;35.52
75759;BME280;64371;47.566;19.086;2023-10-09T11:39:24;100874.88;;;15.72;35.98
75759;BME280;64371;47.566;19.086;2023-10-09T11:42:34;100873.41;;;16.02;35.21
75759;BME280;64371;47.566;19.086;2023-10-09T11:45:49;100837.91;;;16.29;34.35
75759;BME280;64371;47.566;19.086;2023-10-09T11:49:07;100819.91;;;16.04;35.63
75759;BME280;64371;47.566;19.086;2023-10-09T11:52:58;100806.81;;;16.07;35.86
75759;BME280;64371;47.566;19.086;2023-10-09T11:56:23;100805.63;;;16.22;36.73
75759;BME280;64371;47.566;19.086;2023-10-09T11:59:32;100789.50;;;16.18;36.50
75759;BME280;64371;47.566;19.086;2023-10-09T12:02:41;100783.78;;;15.80;37.79
75759;BME280;64371;47.566;19.086;2023-10-09T12:05:46;100762.16;;;15.51;42.38
75759;BME280;64371;47.566;19.086;2023-10-09T12:08:49;100762.72;;;15.62;42.79
75759;BME280;64371;47.566;19.086;2023-10-09T12:11:52;100761.66;;;15.36;41.45
75759;BME280;64371;47.566;19.086;2023-10-09T12:15:06;100747.44;;;15.32;43.96
75759;BME280;64371;47.566;19.086;2023-10-09T12:18:09;100753.00;;;15.08;43.08
75759;BME280;64371;47.566;19.086;2023-10-09T12:21:17;100760.75;;;15.18;45.40
75759;BME280;64371;47.566;19.086;2023-10-09T12:24:20;100746.16;;;15.29;44.20
75759;BME280;64371;47.566;19.086;2023-10-09T12:27:27;100741.22;;;15.50;42.89
75759;BME280;64371;47.566;19.086;2023-10-09T12:30:34;100720.91;;;16.07;43.67
75759;BME280;64371;47.566;19.086;2023-10-09T12:33:56;100726.78;;;15.95;41.28
75759;BME280;64371;47.566;19.086;2023-10-09T12:37:04;100729.25;;;15.91;40.94
75759;BME280;64371;47.566;19.086;2023-10-09T12:40:07;100725.88;;;15.69;41.59
75759;BME280;64371;47.566;19.086;2023-10-09T12:43:13;100729.03;;;15.79;41.38
75759;BME280;64371;47.566;19.086;2023-10-09T12:46:22;100728.94;;;15.62;43.49
75759;BME280;64371;47.566;19.086;2023-10-09T12:49:28;100741.84;;;15.55;45.84
75759;BME280;64371;47.566;19.086;2023-10-09T12:52:30;100744.34;;;15.38;46.25
75759;BME280;64371;47.566;19.086;2023-10-09T12:55:36;100742.41;;;15.66;46.46
75759;BME280;64371;47.566;19.086;2023-10-09T12:58:42;100736.84;;;15.54;44.74
75759;BME280;64371;47.566;19.086;2023-10-09T13:01:56;100741.50;;;15.48;46.70
75759;BME280;64371;47.566;19.086;2023-10-09T13:05:01;100754.22;;;15.24;48.05
75759;BME280;64371;47.566;19.086;2023-10-09T13:08:06;100754.19;;;15.02;51.29
75759;BME280;64371;47.566;19.086;2023-10-09T13:11:14;100754.31;;;14.97;51.78
75759;BME280;64371;47.566;19.086;2023-10-09T13:14:19;100739.88;;;14.62;52.33
75759;BME280;64371;47.566;19.086;2023-10-09T13:17:24;100743.91;;;14.73;52.95
75759;BME280;64371;47.566;19.086;2023-10-09T13:20:29;100741.25;;;14.59;57.61
75759;BME280;64371;47.566;19.086;2023-10-09T13:23:32;100729.78;;;14.50;55.60
75759;BME280;64371;47.566;19.086;2023-10-09T13:26:43;100731.69;;;14.18;55.36
75759;BME280;64371;47.566;19.086;2023-10-09T13:29:53;100724.53;;;14.32;56.79
75759;BME280;64371;47.566;19.086;2023-10-09T13:32:56;100703.84;;;14.34;61.02
75759;BME280;64371;47.566;19.086;2023-10-09T13:35:58;100715.44;;;14.38;59.45
75759;BME280;64371;47.566;19.086;2023-10-09T13:39:04;100719.13;;;14.23;60.93
75759;BME280;64371;47.566;19.086;2023-10-09T13:42:25;100717.72;;;14.12;58.96
75759;BME280;64371;47.566;19.086;2023-10-09T13:45:28;100726.16;;;14.01;59.29
75759;BME280;64371;47.566;19.086;2023-10-09T13:48:32;100727.16;;;13.72;60.55
75759;BME280;64371;47.566;19.086;2023-10-09T13:51:41;100727.81;;;13.64;60.46
75759;BME280;64371;47.566;19.086;2023-10-09T13:54:47;100721.97;;;13.81;62.48
75759;BME280;64371;47.566;19.086;2023-10-09T13:57:51;100712.72;;;14.11;63.53
75759;BME280;64371;47.566;19.086;2023-10-09T14:00:53;100697.88;;;14.10;61.61
75759;BME280;64371;47.566;19.086;2023-10-09T14:03:58;100687.19;;;14.01;62.93
75759;BME280;64371;47.566;19.086;2023-10-09T14:07:02;100673.94;;;14.01;63.65
75759;BME280;64371;47.566;19.086;2023-10-09T14:10:08;100678.53;;;13.95;64.45
75759;BME280;64371;47.566;19.086;2023-10-09T14:13:19;100685.81;;;13.58;63.73
75759;BME280;64371;47.566;19.086;2023-10-09T14:16:28;100679.47;;;13.40;65.09
75759;BME280;64371;47.566;19.086;2023-10-09T14:19:31;100654.69;;;13.50;70.41
75759;BME280;64371;47.566;19.086;2023-10-09T14:22:35;100658.00;;;13.42;69.29
75759;BME280;64371;47.566;19.086;2023-10-09T14:25:40;100656.84;;;13.48;69.10
75759;BME280;64371;47.566;19.086;2023-10-09T14:28:43;100661.66;;;13.46;66.60
75759;BME280;64371;47.566;19.086;2023-10-09T14:31:45;100684.84;;;13.35;67.46
75759;BME280;64371;47.566;19.086;2023-10-09T14:35:02;100684.13;;;13.48;65.70
75759;BME280;64371;47.566;19.086;2023-10-09T14:38:06;100685.31;;;13.56;69.22
75759;BME280;64371;47.566;19.086;2023-10-09T14:41:14;100685.03;;;13.57;70.64
75759;BME280;64371;47.566;19.086;2023-10-09T14:44:17;100687.03;;;13.47;70.52
75759;BME280;64371;47.566;19.086;2023-10-09T14:47:20;100687.94;;;13.23;66.42
75759;BME280;64371;47.566;19.086;2023-10-09T14:50:23;100680.84;;;13.00;69.39
75759;BME280;64371;47.566;19.086;2023-10-09T14:53:25;100678.78;;;13.16;71.21
75759;BME280;64371;47.566;19.086;2023-10-09T14:56:29;100675.56;;;13.19;71.37
75759;BME280;64371;47.566;19.086;2023-10-09T14:59:32;100678.41;;;13.22;72.46
75759;BME280;64371;47.566;19.086;2023-10-09T15:02:36;100679.69;;;13.25;73.05
75759;BME280;64371;47.566;19.086;2023-10-09T15:05:39;100667.78;;;13.09;74.58
75759;BME280;64371;47.566;19.086;2023-10-09T15:08:41;100668.59;;;13.23;75.54
75759;BME280;64371;47.566;19.086;2023-10-09T15:11:45;100669.03;;;12.93;71.90
75759;BME280;64371;47.566;19.086;2023-10-09T15:14:47;100660.69;;;12.86;74.12
75759;BME280;64371;47.566;19.086;2023-10-09T15:17:50;100648.38;;;12.95;75.69
75759;BME280;64371;47.566;19.086;2023-10-09T15:20:52;100659.72;;;12.77;79.28
75759;BME280;64371;47.566;19.086;2023-10-09T15:23:55;100660.06;;;12.89;78.70
75759;BME280;64371;47.566;19.086;2023-10-09T15:26:58;100665.53;;;12.79;79.96
75759;BME280;64371;47.566;19.086;2023-10-09T15:30:01;100678.00;;;12.54;82.31
75759;BME280;64371;47.566;19.086;2023-10-09T15:33:06;100656.56;;;12.56;83.16
75759;BME280;64371;47.566;19.086;2023-10-09T15:36:13;100654.13;;;12.59;82.20
75759;BME280;64371;47.566;19.086;2023-10-09T15:39:18;100648.56;;;12.42;82.25
75759;BME280;64371;47.566;19.086;2023-10-09T15:42:21;100637.59;;;12.30;82.73
75759;BME280;64371;47.566;19.086;2023-10-09T15:45:24;100639.91;;;12.13;84.25
75759;BME280;64371;47.566;19.086;2023-10-09T15:48:30;100640.16;;;12.12;85.53
75759;BME280;64371;47.566;19.086;2023-10-09T15:51:34;100648.94;;;12.07;85.28
75759;BME280;64371;47.566;19.086;2023-10-09T15:54:37;100632.38;;;12.25;85.31
75759;BME280;64371;47.566;19.086;2023-10-09T15:57:40;100616.53;;;12.44;82.24
75759;BME280;64371;47.566;19.086;2023-10-09T16:00:44;100618.19;;;12.40;83.60
75759;BME280;64371;47.566;19.086;2023-10-09T16:03:48;100624.94;;;12.27;82.01
75759;BME280;64371;47.566;19.086;2023-10-09T16:06:52;100616.13;;;12.13;80.93
75759;BME280;64371;47.566;19.086;2023-10-09T16:09:55;100638.03;;;12.14;81.30
75759;BME280;64371;47.566;19.086;2023-10-09T16:13:00;100646.09;;;12.04;84.64
75759;BME280;64371;47.566;19.086;2023-10-09T16:16:03;100634.50;;;11.99;84.55
75759;BME280;64371;47.566;19.086;2023-10-09T16:19:10;100648.09;;;11.88;82.67